Time;durP1;ratioP1;P1;durP2;ratioP2;P2;SDS_P1;SDS_P2;PMS_P1;PMS_P2;Temp;Humidity;BMP_temperature;BMP_pressure;BME280_temperature;BME280_humidity;BME280_pressure;Samples;Min_cycle;Max_cycle;Signal;HPM_P1;HPM_P2
2023/07/06 00:01:06;;;;;;;5.70;4.20;;;15.90;93.10;;;;;;5052017;28;20863;-69
2023/07/06 00:03:37;;;;;;;6.37;3.83;;;15.90;94.80;;;;;;5051254;28;20444;-68
2023/07/06 00:06:08;;;;;;;4.00;3.03;;;15.90;93.50;;;;;;5052126;28;20482;-68
2023/07/06 00:08:38;;;;;;;3.20;2.90;;;15.90;96.20;;;;;;5052493;28;20448;-68
2023/07/06 00:11:09;;;;;;;4.60;3.20;;;15.90;95.70;;;;;;5052423;28;20527;-69
2023/07/06 00:13:38;;;;;;;5.57;3.30;;;16.00;95.60;;;;;;5052093;28;20580;-68
2023/07/06 00:16:07;;;;;;;4.00;3.30;;;15.90;94.50;;;;;;5051225;28;20501;-69
2023/07/06 00:18:36;;;;;;;3.87;3.33;;;15.90;94.60;;;;;;5051799;28;20442;-69
2023/07/06 00:21:04;;;;;;;5.27;3.17;;;16.00;94.30;;;;;;5051297;28;20485;-69
2023/07/06 00:23:33;;;;;;;3.50;3.20;;;15.90;94.50;;;;;;5051044;28;20448;-68
2023/07/06 00:26:05;;;;;;;6.37;3.50;;;15.80;96.00;;;;;;5051114;28;20469;-68
2023/07/06 00:28:33;;;;;;;4.47;2.97;;;15.60;94.80;;;;;;5051443;28;20502;-68
2023/07/06 00:31:08;;;;;;;5.67;3.37;;;15.50;95.50;;;;;;5051113;28;20473;-68
2023/07/06 00:33:37;;;;;;;5.50;3.63;;;15.40;95.70;;;;;;5051110;28;20436;-68
2023/07/06 00:36:06;;;;;;;5.40;3.60;;;15.40;95.40;;;;;;5051378;28;20471;-68
2023/07/06 00:38:36;;;;;;;6.67;3.73;;;15.50;96.30;;;;;;5050876;28;20946;-68
2023/07/06 00:41:04;;;;;;;3.57;3.27;;;15.40;95.70;;;;;;5051248;28;20923;-67
2023/07/06 00:43:49;;;;;;;4.37;3.77;;;15.40;95.30;;;;;;5050738;28;20547;-68
2023/07/06 00:46:18;;;;;;;4.03;3.60;;;15.40;95.70;;;;;;5051204;28;20481;-68
2023/07/06 00:48:51;;;;;;;3.73;3.07;;;15.50;95.70;;;;;;5050718;28;20509;-67
2023/07/06 00:51:24;;;;;;;4.10;3.43;;;15.40;96.10;;;;;;5051105;28;20433;-68
2023/07/06 00:53:56;;;;;;;3.77;3.37;;;15.40;96.20;;;;;;5050553;28;20437;-68
2023/07/06 00:56:28;;;;;;;4.20;3.00;;;15.40;96.40;;;;;;5051268;28;20845;-68
2023/07/06 00:59:05;;;;;;;4.30;3.20;;;15.50;97.00;;;;;;5051040;28;20886;-68
2023/07/06 01:01:40;;;;;;;4.10;3.47;;;15.60;95.50;;;;;;5051239;28;20447;-68
2023/07/06 01:04:14;;;;;;;4.13;2.93;;;15.70;95.90;;;;;;5050590;28;20459;-68
2023/07/06 01:06:47;;;;;;;4.93;3.50;;;15.70;94.80;;;;;;5050922;28;20544;-68
2023/07/06 01:09:17;;;;;;;4.30;2.90;;;15.70;96.00;;;;;;5050835;28;20446;-67
2023/07/06 01:11:45;;;;;;;3.67;3.30;;;15.70;97.00;;;;;;5050663;28;20445;-67
2023/07/06 01:14:15;;;;;;;3.47;3.17;;;15.60;97.30;;;;;;5050463;28;20466;-68
2023/07/06 01:16:47;;;;;;;3.00;2.60;;;15.50;96.50;;;;;;5050634;28;20476;-69
2023/07/06 01:19:38;;;;;;;3.60;3.00;;;15.30;96.60;;;;;;5050988;28;20422;-68
2023/07/06 01:22:22;;;;;;;3.40;2.90;;;15.20;97.90;;;;;;5050274;28;20433;-68
2023/07/06 01:25:04;;;;;;;3.40;3.10;;;15.00;96.80;;;;;;5064644;28;20483;-68
2023/07/06 01:27:51;;;;;;;5.57;3.57;;;15.00;97.80;;;;;;5050603;28;20532;-68
2023/07/06 01:30:58;;;;;;;6.67;3.50;;;14.80;97.30;;;;;;5050390;28;20542;-68
2023/07/06 01:33:33;;;;;;;4.50;3.37;;;14.60;98.80;;;;;;5049831;28;20804;-68
2023/07/06 01:36:09;;;;;;;4.80;3.47;;;14.70;98.00;;;;;;5050250;28;20518;-68
2023/07/06 01:38:37;;;;;;;4.67;3.27;;;14.60;98.00;;;;;;5049818;28;20484;-68
2023/07/06 01:41:06;;;;;;;4.00;3.07;;;14.60;98.20;;;;;;5050224;28;20501;-68
2023/07/06 01:43:35;;;;;;;5.17;3.77;;;14.50;99.70;;;;;;5049511;28;20474;-68
2023/07/06 01:46:03;;;;;;;4.30;2.90;;;14.30;99.90;;;;;;5050391;28;20447;-69
2023/07/06 01:48:32;;;;;;;5.67;3.60;;;14.30;99.90;;;;;;5049693;28;21022;-68
2023/07/06 01:51:09;;;;;;;4.20;3.50;;;14.10;99.90;;;;;;5050236;28;20534;-68
2023/07/06 01:53:43;;;;;;;4.83;3.70;;;14.00;99.90;;;;;;5049456;28;20438;-68
2023/07/06 01:56:17;;;;;;;4.10;3.50;;;14.00;99.90;;;;;;5050058;28;20471;-68
2023/07/06 01:58:51;;;;;;;4.30;3.30;;;13.90;99.90;;;;;;5050001;28;20444;-69
2023/07/06 02:01:24;;;;;;;4.27;3.87;;;13.90;99.90;;;;;;5050076;28;20471;-68
2023/07/06 02:03:55;;;;;;;5.70;3.77;;;13.80;99.90;;;;;;5049348;28;20901;-67
2023/07/06 02:06:23;;;;;;;4.80;3.30;;;13.80;99.90;;;;;;5049698;28;21052;-68
2023/07/06 02:08:54;;;;;;;5.10;3.20;;;13.80;99.90;;;;;;5049876;28;20535;-68
2023/07/06 02:11:24;;;;;;;7.13;3.93;;;13.80;99.90;;;;;;5049428;28;20444;-68
2023/07/06 02:13:52;;;;;;;4.57;3.57;;;13.80;99.90;;;;;;5049409;28;20447;-68
2023/07/06 02:16:20;;;;;;;4.73;3.80;;;13.80;99.90;;;;;;5048613;28;20468;-69
2023/07/06 02:18:49;;;;;;;5.00;3.50;;;13.80;99.90;;;;;;5049519;28;20443;-69
2023/07/06 02:21:18;;;;;;;5.37;3.67;;;13.80;99.90;;;;;;5049274;28;20561;-68
2023/07/06 02:23:46;;;;;;;5.30;4.80;;;13.80;99.90;;;;;;5049223;28;20860;-69
2023/07/06 02:26:15;;;;;;;4.70;4.07;;;13.90;99.90;;;;;;5049491;28;20442;-69
2023/07/06 02:28:43;;;;;;;5.30;4.07;;;13.80;99.90;;;;;;5049335;28;20447;-68
2023/07/06 02:31:11;;;;;;;4.00;3.50;;;13.80;99.90;;;;;;5049485;28;20502;-69
2023/07/06 02:33:39;;;;;;;4.83;4.43;;;13.80;99.90;;;;;;5048917;28;20512;-68
2023/07/06 02:36:07;;;;;;;5.10;3.60;;;13.70;99.90;;;;;;5049418;28;20490;-69
2023/07/06 02:38:37;;;;;;;7.50;4.63;;;13.70;99.90;;;;;;5049331;28;20851;-69
2023/07/06 02:41:05;;;;;;;6.67;3.80;;;13.70;99.90;;;;;;5049351;28;20442;-68
2023/07/06 02:43:33;;;;;;;4.27;3.87;;;13.70;99.90;;;;;;5048674;28;20854;-69
2023/07/06 02:46:03;;;;;;;4.17;3.80;;;13.60;99.90;;;;;;5049653;28;20494;-69
2023/07/06 02:48:32;;;;;;;3.97;3.67;;;13.50;99.90;;;;;;5049635;28;20440;-68
2023/07/06 02:51:00;;;;;;;3.97;3.67;;;13.50;99.90;;;;;;5049815;28;20499;-69
2023/07/06 02:53:28;;;;;;;4.47;4.07;;;13.40;99.90;;;;;;5049732;28;20470;-69
2023/07/06 02:55:58;;;;;;;6.73;4.37;;;13.30;99.90;;;;;;5049059;28;20452;-69
2023/07/06 02:58:27;;;;;;;6.67;5.03;;;13.10;99.90;;;;;;5049593;28;20476;-68
2023/07/06 03:00:56;;;;;;;5.67;4.03;;;13.20;99.90;;;;;;5049479;28;20450;-69
2023/07/06 03:03:26;;;;;;;7.40;4.40;;;13.10;99.90;;;;;;5049179;28;20524;-69
2023/07/06 03:05:54;;;;;;;4.70;4.30;;;12.90;99.90;;;;;;5049195;28;20460;-69
2023/07/06 03:08:23;;;;;;;6.93;4.23;;;12.80;99.90;;;;;;5049541;28;20541;-68
2023/07/06 03:10:53;;;;;;;5.00;4.50;;;12.80;99.90;;;;;;5049238;28;20448;-69
2023/07/06 03:13:24;;;;;;;8.10;5.03;;;12.90;99.90;;;;;;5049422;28;20497;-69
2023/07/06 03:15:52;;;;;;;4.70;4.30;;;12.80;99.90;;;;;;5049384;28;20516;-69
2023/07/06 03:18:20;;;;;;;5.03;4.07;;;12.80;99.90;;;;;;5049303;28;20808;-69
2023/07/06 03:20:49;;;;;;;4.97;4.20;;;12.80;99.90;;;;;;5049321;28;20436;-69
2023/07/06 03:23:18;;;;;;;6.33;4.20;;;12.70;99.90;;;;;;5048790;28;20475;-68
2023/07/06 03:25:50;;;;;;;5.70;3.80;;;12.70;99.90;;;;;;5049783;28;20463;-68
2023/07/06 03:28:18;;;;;;;4.93;4.33;;;12.70;99.90;;;;;;5050133;28;20479;-68
2023/07/06 03:30:53;;;;;;;4.80;4.17;;;13.00;99.90;;;;;;5053257;28;20439;-69
2023/07/06 03:33:21;;;;;;;3.90;3.30;;;13.00;99.90;;;;;;5052260;28;21013;-69
2023/07/06 03:35:49;;;;;;;5.00;3.70;;;13.00;99.90;;;;;;5052953;28;20467;-67
2023/07/06 03:38:17;;;;;;;5.47;4.30;;;12.90;99.90;;;;;;5052322;28;20528;-68
2023/07/06 03:40:49;;;;;;;5.23;4.50;;;12.70;99.90;;;;;;5052442;28;20451;-68
2023/07/06 03:43:19;;;;;;;6.20;4.37;;;12.60;99.90;;;;;;5052101;28;20446;-68
2023/07/06 03:45:49;;;;;;;5.10;4.60;;;12.60;99.90;;;;;;5052094;28;20470;-68
2023/07/06 03:48:17;;;;;;;5.83;4.43;;;12.70;99.90;;;;;;5047959;28;20990;-68
2023/07/06 03:50:45;;;;;;;6.70;4.13;;;12.90;99.90;;;;;;5032440;28;20517;-68
2023/07/06 03:53:13;;;;;;;5.37;4.83;;;12.90;99.90;;;;;;5032351;28;20434;-68
2023/07/06 03:55:41;;;;;;;5.13;4.60;;;12.80;99.90;;;;;;5031592;28;21025;-69
2023/07/06 03:58:10;;;;;;;4.37;3.83;;;12.70;99.90;;;;;;5032220;28;20474;-69
2023/07/06 04:00:39;;;;;;;6.20;4.77;;;12.60;99.90;;;;;;5046694;28;20513;-69
2023/07/06 04:03:09;;;;;;;4.87;4.43;;;12.50;99.90;;;;;;5052020;28;20472;-69
2023/07/06 04:05:40;;;;;;;6.03;4.50;;;12.50;99.90;;;;;;5051587;28;20462;-68
2023/07/06 04:08:12;;;;;;;5.27;4.30;;;12.50;99.90;;;;;;5050715;28;21173;-69
2023/07/06 04:10:41;;;;;;;5.37;4.10;;;12.70;99.90;;;;;;5051898;28;20443;-69
2023/07/06 04:13:10;;;;;;;5.73;4.17;;;12.70;99.90;;;;;;5051169;28;20457;-69
2023/07/06 04:15:40;;;;;;;4.97;4.40;;;12.70;99.90;;;;;;5051920;28;20459;-68
2023/07/06 04:18:10;;;;;;;5.20;4.23;;;12.80;99.90;;;;;;5051715;28;20883;-69
2023/07/06 04:20:38;;;;;;;7.80;4.30;;;12.70;99.90;;;;;;5052127;28;20440;-69
2023/07/06 04:23:09;;;;;;;5.10;3.50;;;12.80;99.90;;;;;;5052036;28;21013;-68
2023/07/06 04:25:38;;;;;;;5.50;5.00;;;12.80;99.90;;;;;;5051912;28;20469;-68
2023/07/06 04:28:10;;;;;;;5.40;4.87;;;12.90;99.90;;;;;;5051527;28;20447;-68
2023/07/06 04:30:40;;;;;;;4.80;4.30;;;13.10;99.90;;;;;;5051766;28;20462;-68
2023/07/06 04:33:14;;;;;;;9.93;4.90;;;13.10;99.90;;;;;;5051020;28;20511;-68
2023/07/06 04:35:43;;;;;;;4.90;4.40;;;13.00;99.90;;;;;;5051665;28;20547;-67
2023/07/06 04:38:11;;;;;;;13.13;5.77;;;13.10;99.90;;;;;;5051703;28;20486;-67
2023/07/06 04:40:41;;;;;;;5.03;4.10;;;13.30;99.90;;;;;;5051882;28;20439;-67
2023/07/06 04:43:09;;;;;;;5.00;4.10;;;13.20;99.90;;;;;;5052895;28;20446;-67
2023/07/06 04:45:37;;;;;;;7.47;4.43;;;13.30;99.90;;;;;;5051532;28;20530;-68
2023/07/06 04:48:07;;;;;;;4.67;4.20;;;13.50;99.90;;;;;;5051489;28;20826;-68
2023/07/06 04:50:37;;;;;;;7.63;4.60;;;13.50;99.90;;;;;;5051100;28;20510;-68
2023/07/06 04:53:07;;;;;;;4.90;4.40;;;13.50;99.90;;;;;;5051591;28;20496;-68
2023/07/06 04:55:36;;;;;;;4.80;4.30;;;13.50;99.90;;;;;;5051049;28;20456;-70
2023/07/06 04:58:05;;;;;;;4.23;3.83;;;13.70;99.90;;;;;;5051338;28;20829;-67
2023/07/06 05:00:37;;;;;;;4.83;3.90;;;13.80;99.90;;;;;;5051031;28;20443;-69
2023/07/06 05:03:07;;;;;;;5.00;4.60;;;13.90;99.90;;;;;;5050426;28;20438;-67
2023/07/06 05:05:40;;;;;;;5.00;3.93;;;14.00;99.90;;;;;;5050758;28;20492;-69
2023/07/06 05:08:09;;;;;;;6.63;4.50;;;14.10;99.90;;;;;;5050773;28;20432;-67
2023/07/06 05:10:38;;;;;;;4.80;4.00;;;14.10;99.90;;;;;;5051063;28;20869;-69
2023/07/06 05:13:06;;;;;;;5.57;3.73;;;14.10;99.90;;;;;;5039776;28;20468;-70
2023/07/06 05:15:37;;;;;;;5.40;4.27;;;14.10;99.90;;;;;;5030266;28;20472;-68
2023/07/06 05:18:06;;;;;;;5.87;4.63;;;14.20;99.90;;;;;;5030511;28;20567;-68
2023/07/06 05:20:34;;;;;;;6.27;4.90;;;14.30;99.90;;;;;;5030893;28;20861;-68
2023/07/06 05:23:05;;;;;;;8.90;5.03;;;14.40;99.90;;;;;;5027598;28;20455;-67
2023/07/06 05:25:34;;;;;;;5.27;4.40;;;14.40;99.90;;;;;;5029071;28;20468;-68
2023/07/06 05:28:02;;;;;;;4.80;4.30;;;14.40;99.90;;;;;;5029717;28;20511;-68
2023/07/06 05:30:30;;;;;;;5.47;4.43;;;14.40;99.90;;;;;;5030682;28;20449;-67
2023/07/06 05:32:58;;;;;;;4.10;3.73;;;14.50;99.90;;;;;;5030182;28;20543;-68
2023/07/06 05:35:27;;;;;;;9.10;4.13;;;14.70;99.90;;;;;;5029113;28;21057;-67
2023/07/06 05:37:55;;;;;;;4.97;3.87;;;14.80;99.90;;;;;;5030195;28;20477;-66
2023/07/06 05:40:25;;;;;;;5.47;3.77;;;14.90;99.90;;;;;;5030191;28;21002;-66
2023/07/06 05:42:54;;;;;;;4.20;3.70;;;15.00;99.90;;;;;;5029931;28;20453;-66
2023/07/06 05:45:22;;;;;;;5.63;4.27;;;15.20;99.90;;;;;;5030211;28;20469;-67
2023/07/06 05:47:50;;;;;;;3.80;3.50;;;15.30;99.90;;;;;;5030285;28;20537;-67
2023/07/06 05:50:18;;;;;;;6.17;3.87;;;15.40;99.90;;;;;;5029923;28;20465;-66
2023/07/06 05:52:47;;;;;;;4.50;4.03;;;15.50;99.90;;;;;;5028541;28;20994;-65
2023/07/06 05:55:16;;;;;;;6.63;4.30;;;15.60;99.90;;;;;;5029391;28;20457;-67
2023/07/06 05:57:45;;;;;;;4.73;4.30;;;15.70;99.90;;;;;;5029562;28;20969;-67
2023/07/06 06:00:15;;;;;;;4.30;3.90;;;15.80;99.90;;;;;;5029744;28;20447;-68
2023/07/06 06:02:44;;;;;;;4.50;3.70;;;15.90;99.90;;;;;;5029436;28;20955;-67
2023/07/06 06:05:13;;;;;;;4.30;3.87;;;16.00;99.90;;;;;;5029271;28;20453;-66
2023/07/06 06:07:43;;;;;;;4.87;4.07;;;16.10;99.60;;;;;;5029442;28;20448;-68
2023/07/06 06:10:12;;;;;;;4.20;3.80;;;16.10;99.90;;;;;;5029804;28;20469;-68
2023/07/06 06:12:41;;;;;;;6.27;3.73;;;16.20;98.70;;;;;;5028581;28;20463;-67
2023/07/06 06:15:10;;;;;;;4.17;3.63;;;16.40;99.60;;;;;;5029386;28;20998;-67
2023/07/06 06:17:40;;;;;;;4.93;3.93;;;16.60;98.80;;;;;;5029233;28;20449;-67
2023/07/06 06:20:09;;;;;;;4.30;3.80;;;16.70;97.70;;;;;;5029536;28;20979;-66
2023/07/06 06:22:38;;;;;;;4.63;3.97;;;16.80;98.30;;;;;;5029111;28;20433;-67
2023/07/06 06:25:07;;;;;;;4.03;3.63;;;17.10;97.10;;;;;;5029370;28;20452;-67
2023/07/06 06:27:35;;;;;;;4.90;3.73;;;17.30;96.40;;;;;;5029344;28;20579;-68
2023/07/06 06:30:05;;;;;;;3.40;3.10;;;17.50;96.40;;;;;;5029482;28;20476;-67
2023/07/06 06:32:35;;;;;;;3.43;2.70;;;17.60;95.70;;;;;;5029164;28;20491;-67
2023/07/06 06:35:04;;;;;;;5.73;4.00;;;17.70;94.40;;;;;;5029637;28;20547;-67
2023/07/06 06:37:32;;;;;;;6.13;3.87;;;17.90;93.50;;;;;;5029736;28;20433;-67
2023/07/06 06:40:00;;;;;;;4.10;2.97;;;17.90;92.40;;;;;;5029368;28;21040;-66
2023/07/06 06:42:29;;;;;;;5.47;3.13;;;18.10;90.80;;;;;;5028946;28;20444;-67
2023/07/06 06:44:58;;;;;;;4.17;2.90;;;18.20;90.30;;;;;;5029533;28;20471;-67
2023/07/06 06:47:26;;;;;;;3.60;2.80;;;18.30;89.70;;;;;;5029597;28;20824;-67
2023/07/06 06:49:56;;;;;;;4.23;2.83;;;18.40;88.80;;;;;;5029505;28;20445;-67
2023/07/06 06:52:25;;;;;;;3.40;2.90;;;18.40;88.10;;;;;;5029393;28;20975;-67
2023/07/06 06:54:53;;;;;;;2.83;2.57;;;18.40;83.80;;;;;;5029658;28;21327;-68
2023/07/06 06:57:22;;;;;;;5.00;2.43;;;18.60;81.70;;;;;;5029627;28;20441;-65
2023/07/06 06:59:50;;;;;;;5.07;2.97;;;18.70;78.10;;;;;;5029387;28;20524;-67
2023/07/06 07:02:18;;;;;;;4.70;2.80;;;18.80;79.50;;;;;;5029529;28;20452;-68
2023/07/06 07:04:46;;;;;;;4.07;2.40;;;18.70;79.10;;;;;;5032860;28;20472;-67
2023/07/06 07:07:15;;;;;;;4.80;2.63;;;18.70;80.10;;;;;;5033296;28;20441;-67
2023/07/06 07:09:44;;;;;;;4.10;2.80;;;18.70;80.20;;;;;;5033229;28;20445;-67
2023/07/06 07:12:13;;;;;;;5.60;2.50;;;18.80;80.40;;;;;;5033235;28;20453;-69
2023/07/06 07:14:41;;;;;;;3.53;2.73;;;18.90;77.90;;;;;;5032574;28;20553;-68
2023/07/06 07:17:10;;;;;;;3.07;2.63;;;19.00;77.20;;;;;;5033286;28;20491;-69
2023/07/06 07:19:39;;;;;;;4.50;2.77;;;19.00;76.20;;;;;;5032804;28;20515;-68
2023/07/06 07:22:07;;;;;;;5.30;2.40;;;19.20;75.20;;;;;;5033025;28;20463;-68
2023/07/06 07:24:37;;;;;;;2.83;2.30;;;19.30;73.80;;;;;;5032685;28;21026;-68
2023/07/06 07:27:05;;;;;;;4.27;2.33;;;19.40;73.00;;;;;;5033002;28;20535;-68
2023/07/06 07:29:33;;;;;;;5.40;2.67;;;19.40;73.30;;;;;;5032824;28;20520;-68
2023/07/06 07:32:02;;;;;;;2.80;2.37;;;19.60;69.90;;;;;;5032754;28;20830;-69
2023/07/06 07:34:30;;;;;;;3.33;2.30;;;19.70;68.20;;;;;;5032292;28;20465;-68
2023/07/06 07:36:58;;;;;;;3.10;2.07;;;19.80;68.50;;;;;;5033586;28;20473;-67
2023/07/06 07:39:26;;;;;;;2.77;2.10;;;19.90;67.10;;;;;;5033783;28;20519;-67
2023/07/06 07:41:56;;;;;;;2.60;2.03;;;20.00;67.20;;;;;;5033221;28;20457;-68
2023/07/06 07:44:28;;;;;;;2.70;2.03;;;20.00;66.50;;;;;;5033498;28;20467;-70
2023/07/06 07:46:56;;;;;;;2.03;1.80;;;20.20;65.20;;;;;;5032826;28;20441;-69
2023/07/06 07:49:25;;;;;;;2.93;1.90;;;20.20;65.00;;;;;;5032222;28;20453;-69
2023/07/06 07:51:53;;;;;;;4.17;2.10;;;20.30;64.50;;;;;;5033769;28;20430;-69
2023/07/06 07:54:22;;;;;;;4.80;2.13;;;20.30;63.90;;;;;;5034415;28;21181;-69
2023/07/06 07:56:53;;;;;;;3.00;2.17;;;20.40;63.00;;;;;;5033275;28;20451;-69
2023/07/06 07:59:24;;;;;;;4.00;2.13;;;20.50;63.50;;;;;;5032619;28;20477;-68
2023/07/06 08:01:53;;;;;;;3.90;2.20;;;20.50;66.10;;;;;;5032044;28;20871;-68
2023/07/06 08:04:21;;;;;;;2.77;2.40;;;20.60;64.50;;;;;;5032502;28;20218;-68
2023/07/06 08:06:50;;;;;;;4.47;2.20;;;20.80;60.80;;;;;;5033205;28;20444;-69
2023/07/06 08:09:23;;;;;;;7.93;2.33;;;20.90;60.40;;;;;;5033791;28;20515;-68
2023/07/06 08:11:51;;;;;;;6.00;1.90;;;21.00;60.70;;;;;;5032560;28;20436;-67
2023/07/06 08:14:35;;;;;;;2.57;2.30;;;21.10;63.60;;;;;;5031026;28;20530;-69
2023/07/06 08:17:04;;;;;;;2.80;2.07;;;21.30;61.10;;;;;;5032855;28;20449;-68
2023/07/06 08:19:33;;;;;;;3.70;2.00;;;21.50;59.90;;;;;;5033491;28;20477;-68
2023/07/06 08:22:22;;;;;;;2.23;1.80;;;21.60;60.70;;;;;;5033568;28;20441;-68
2023/07/06 08:24:52;;;;;;;4.73;2.20;;;21.70;60.00;;;;;;5032301;28;20456;-68
2023/07/06 08:27:20;;;;;;;3.97;2.10;;;21.80;59.40;;;;;;5032704;28;20495;-68
2023/07/06 08:29:52;;;;;;;3.50;2.00;;;21.90;58.80;;;;;;5037622;28;21109;-68
2023/07/06 08:32:21;;;;;;;3.43;2.23;;;22.00;57.60;;;;;;5041757;28;20448;-68
2023/07/06 08:34:50;;;;;;;2.63;1.73;;;22.00;56.30;;;;;;5051389;28;20449;-68
2023/07/06 08:37:18;;;;;;;2.30;1.90;;;22.00;57.10;;;;;;5050141;28;20441;-67
2023/07/06 08:39:47;;;;;;;2.40;1.67;;;22.10;58.40;;;;;;5044563;28;20558;-68
2023/07/06 08:42:18;;;;;;;5.00;2.77;;;22.30;56.20;;;;;;5033095;28;20441;-67
2023/07/06 08:44:53;;;;;;;4.97;2.77;;;22.40;56.40;;;;;;5033269;28;20468;-67
2023/07/06 08:47:25;;;;;;;6.10;1.97;;;22.50;55.50;;;;;;5033610;28;20441;-71
2023/07/06 08:49:54;;;;;;;2.50;2.17;;;22.40;54.80;;;;;;5033546;28;20456;-71
2023/07/06 08:52:24;;;;;;;3.13;2.10;;;22.30;56.20;;;;;;5035684;28;20440;-69
2023/07/06 08:54:52;;;;;;;4.20;2.50;;;22.40;56.00;;;;;;5033377;28;20515;-71
2023/07/06 08:57:23;;;;;;;3.30;2.33;;;22.60;53.90;;;;;;5034000;28;20487;-71
2023/07/06 08:59:53;;;;;;;2.60;1.97;;;22.70;55.30;;;;;;5033122;28;20477;-71
2023/07/06 09:02:23;;;;;;;3.90;2.40;;;22.80;53.30;;;;;;5033203;28;20442;-70
2023/07/06 09:04:54;;;;;;;4.13;2.43;;;23.00;53.60;;;;;;5033300;28;20471;-70
2023/07/06 09:07:28;;;;;;;3.40;2.30;;;23.10;53.00;;;;;;5033366;28;20556;-71
2023/07/06 09:09:57;;;;;;;3.67;1.90;;;23.20;51.70;;;;;;5032222;28;20440;-69
2023/07/06 09:12:45;;;;;;;3.60;2.67;;;23.10;52.80;;;;;;5031554;28;20512;-69
2023/07/06 09:15:17;;;;;;;3.07;2.50;;;23.50;54.20;;;;;;5032148;28;20475;-69
2023/07/06 09:17:46;;;;;;;4.10;2.80;;;23.80;54.80;;;;;;5033435;28;20994;-69
2023/07/06 09:20:17;;;;;;;4.10;2.50;;;24.10;52.90;;;;;;5032327;28;20473;-72
2023/07/06 09:22:46;;;;;;;4.00;2.67;;;24.50;49.80;;;;;;5031336;28;20935;-73
2023/07/06 09:25:17;;;;;;;2.83;1.90;;;24.70;51.70;;;;;;5034560;28;20469;-72
2023/07/06 09:27:48;;;;;;;3.60;2.77;;;25.10;51.80;;;;;;5036479;28;20568;-73
2023/07/06 09:30:29;;;;;;;3.33;2.60;;;25.50;50.90;;;;;;5036785;28;20451;-72
2023/07/06 09:33:05;;;;;;;2.63;1.93;;;25.90;47.20;;;;;;5036228;28;20882;-71
2023/07/06 09:35:36;;;;;;;4.30;2.37;;;26.10;47.40;;;;;;5031741;28;20472;-71
2023/07/06 09:38:06;;;;;;;5.53;2.57;;;25.90;45.90;;;;;;5035036;28;20445;-74
2023/07/06 09:40:35;;;;;;;3.30;2.30;;;25.90;45.30;;;;;;5030901;28;20477;-74
2023/07/06 09:43:03;;;;;;;4.47;2.93;;;26.00;46.10;;;;;;5030883;28;20452;-69
2023/07/06 09:45:34;;;;;;;2.30;1.83;;;26.10;45.40;;;;;;5033108;28;20465;-70
2023/07/06 09:48:07;;;;;;;2.90;2.70;;;25.90;44.20;;;;;;5031511;28;20433;-67
2023/07/06 09:50:39;;;;;;;4.07;2.20;;;25.50;46.00;;;;;;5012941;28;20515;-71
2023/07/06 09:53:11;;;;;;;2.77;2.40;;;25.20;44.90;;;;;;5011473;28;20442;-70
2023/07/06 09:55:39;;;;;;;3.97;2.60;;;25.00;45.20;;;;;;5011619;28;20923;-69
2023/07/06 09:58:15;;;;;;;4.50;3.27;;;24.60;44.90;;;;;;5012023;28;20540;-69
2023/07/06 10:00:52;;;;;;;4.20;2.50;;;24.50;45.40;;;;;;5011477;28;20473;-70
2023/07/06 10:03:36;;;;;;;2.97;2.37;;;24.90;44.50;;;;;;5012011;28;20476;-70
2023/07/06 10:06:14;;;;;;;5.37;2.10;;;25.30;44.20;;;;;;5031128;28;20533;-71
2023/07/06 10:08:46;;;;;;;3.43;2.37;;;26.50;42.70;;;;;;5030750;28;20469;-71
2023/07/06 10:11:22;;;;;;;5.27;2.57;;;27.30;41.10;;;;;;5031110;28;20499;-73
2023/07/06 10:13:58;;;;;;;2.70;2.50;;;27.60;40.10;;;;;;5031225;28;20440;-72
2023/07/06 10:16:42;;;;;;;4.10;3.03;;;28.00;40.10;;;;;;5031435;28;20457;-72
2023/07/06 10:19:18;;;;;;;3.70;2.80;;;29.00;39.50;;;;;;5032124;28;20437;-72
2023/07/06 10:21:54;;;;;;;5.37;2.53;;;29.40;38.90;;;;;;5032562;28;20998;-73
2023/07/06 10:24:33;;;;;;;3.67;3.10;;;29.70;37.80;;;;;;5034060;28;20452;-70
2023/07/06 10:27:05;;;;;;;3.00;2.50;;;29.00;36.40;;;;;;5033883;28;20437;-70
2023/07/06 10:29:39;;;;;;;3.77;2.80;;;28.40;38.00;;;;;;5035144;28;20573;-70
2023/07/06 10:32:13;;;;;;;3.93;2.87;;;28.00;38.50;;;;;;5043769;28;20567;-71
2023/07/06 10:34:46;;;;;;;3.77;2.80;;;28.00;38.90;;;;;;5045956;28;20453;-69
2023/07/06 10:37:16;;;;;;;3.70;2.50;;;27.20;39.30;;;;;;5038515;28;21001;-71
2023/07/06 10:40:16;;;;;;;3.80;2.80;;;27.10;41.90;;;;;;5042198;28;20476;-72
2023/07/06 10:42:49;;;;;;;2.97;2.43;;;28.20;40.60;;;;;;5033137;28;20528;-73
2023/07/06 10:45:42;;;;;;;3.80;2.47;;;27.90;39.30;;;;;;5033475;28;20888;-72
2023/07/06 10:48:26;;;;;;;4.30;2.87;;;27.60;39.10;;;;;;5033381;28;20472;-72
2023/07/06 10:51:10;;;;;;;3.63;2.70;;;26.60;40.20;;;;;;5033489;28;20428;-74
2023/07/06 10:53:40;;;;;;;3.20;2.77;;;26.70;39.10;;;;;;5033048;28;20468;-73
2023/07/06 10:56:17;;;;;;;4.80;2.63;;;27.10;39.30;;;;;;5033388;28;20491;-74
2023/07/06 10:58:54;;;;;;;2.90;2.60;;;27.20;38.60;;;;;;5033267;28;20455;-72
2023/07/06 11:01:28;;;;;;;6.27;2.80;;;26.90;39.30;;;;;;5033619;28;20479;-74
2023/07/06 11:04:00;;;;;;;3.23;2.90;;;26.50;40.60;;;;;;5033065;28;20441;-71
2023/07/06 11:06:54;;;;;;;3.70;2.83;;;26.10;41.10;;;;;;5033675;28;20495;-72
2023/07/06 11:09:23;;;;;;;3.20;2.73;;;26.30;39.90;;;;;;5030165;28;20884;-73
2023/07/06 11:12:20;;;;;;;3.90;2.80;;;27.00;39.30;;;;;;5034025;28;20436;-72
2023/07/06 11:14:50;;;;;;;3.57;2.30;;;27.60;38.60;;;;;;5033919;28;20461;-74
2023/07/06 11:17:26;;;;;;;5.17;2.93;;;28.30;38.30;;;;;;5033277;28;20535;-73
2023/07/06 11:20:00;;;;;;;2.73;2.53;;;28.10;36.80;;;;;;5033015;28;20941;-73
2023/07/06 11:22:28;;;;;;;3.77;2.53;;;28.00;37.60;;;;;;5033015;28;20622;-74
2023/07/06 11:25:03;;;;;;;3.10;2.70;;;28.20;37.30;;;;;;5032490;28;20507;-73
2023/07/06 11:27:35;;;;;;;3.50;3.10;;;28.50;37.00;;;;;;5033017;28;20440;-74
2023/07/06 11:30:13;;;;;;;7.97;3.10;;;29.00;36.30;;;;;;5032553;28;20526;-73
2023/07/06 11:32:59;;;;;;;5.20;2.67;;;29.40;34.90;;;;;;5032672;28;20479;-72
2023/07/06 11:35:38;;;;;;;4.33;2.60;;;28.60;35.50;;;;;;5032829;28;20453;-72
2023/07/06 11:38:22;;;;;;;5.33;2.60;;;28.10;35.90;;;;;;5032717;28;20491;-73
2023/07/06 11:41:11;;;;;;;4.80;3.03;;;27.40;37.30;;;;;;5032599;28;20452;-74
2023/07/06 11:43:51;;;;;;;6.20;2.97;;;26.90;37.60;;;;;;5032404;28;20429;-72
2023/07/06 11:46:36;;;;;;;4.53;2.47;;;26.40;38.50;;;;;;5035382;28;20789;-73
2023/07/06 11:49:32;;;;;;;3.40;2.57;;;25.90;38.40;;;;;;5050339;28;20535;-73
2023/07/06 11:52:04;;;;;;;4.00;2.60;;;26.10;41.00;;;;;;5052513;28;20450;-72
2023/07/06 11:54:49;;;;;;;3.77;2.43;;;26.40;40.80;;;;;;5052320;28;20460;-73
2023/07/06 11:57:26;;;;;;;5.03;3.10;;;27.20;40.70;;;;;;5052195;28;20918;-74
2023/07/06 12:00:17;;;;;;;3.33;2.83;;;28.50;39.60;;;;;;5052152;28;20436;-73
2023/07/06 12:02:48;;;;;;;3.70;3.00;;;29.60;35.80;;;;;;5051936;28;20476;-75
2023/07/06 12:05:25;;;;;;;3.13;2.70;;;31.00;35.80;;;;;;5052324;28;20467;-74
2023/07/06 12:07:59;;;;;;;4.60;2.80;;;31.10;32.30;;;;;;5051505;28;21127;-72
2023/07/06 12:10:31;;;;;;;4.60;2.60;;;30.70;33.60;;;;;;5052237;28;20501;-75
2023/07/06 12:12:59;;;;;;;3.20;2.20;;;30.30;33.70;;;;;;5052092;28;20440;-70
2023/07/06 12:15:29;;;;;;;5.20;2.53;;;30.10;34.40;;;;;;5052149;28;20498;-70
2023/07/06 12:17:57;;;;;;;3.40;2.60;;;30.20;32.90;;;;;;5052309;28;20444;-69
2023/07/06 12:20:29;;;;;;;3.30;2.33;;;30.30;33.90;;;;;;5052608;28;20494;-70
2023/07/06 12:22:59;;;;;;;3.57;2.37;;;30.50;34.20;;;;;;5051523;28;20836;-71
2023/07/06 12:25:28;;;;;;;4.43;2.90;;;31.30;31.90;;;;;;5052084;28;20582;-69
2023/07/06 12:27:58;;;;;;;2.83;2.47;;;31.60;32.60;;;;;;5051738;28;20787;-71
2023/07/06 12:30:33;;;;;;;3.17;2.70;;;31.00;31.70;;;;;;5051482;28;20431;-69
2023/07/06 12:33:05;;;;;;;4.53;2.83;;;31.00;32.20;;;;;;5051429;28;20471;-69
2023/07/06 12:35:34;;;;;;;4.70;2.90;;;30.60;32.60;;;;;;5043267;28;20963;-68
2023/07/06 12:38:09;;;;;;;5.23;3.30;;;30.30;33.00;;;;;;5031589;28;20437;-68
2023/07/06 12:40:38;;;;;;;3.40;2.90;;;29.80;33.50;;;;;;5031623;28;20436;-70
2023/07/06 12:43:10;;;;;;;2.90;2.67;;;29.50;33.70;;;;;;5031314;28;20555;-69
2023/07/06 12:45:39;;;;;;;5.50;3.10;;;28.70;35.20;;;;;;5031061;28;21036;-70
2023/07/06 12:48:18;;;;;;;4.10;2.90;;;27.30;37.30;;;;;;5031733;28;20441;-68
2023/07/06 12:50:47;;;;;;;3.60;2.73;;;26.40;38.80;;;;;;5031207;28;20494;-68
2023/07/06 12:53:22;;;;;;;2.47;2.27;;;26.40;39.20;;;;;;5031248;28;20433;-68
2023/07/06 12:55:52;;;;;;;4.17;3.10;;;26.70;39.00;;;;;;5031360;28;20452;-69
2023/07/06 12:58:27;;;;;;;5.53;3.07;;;26.80;38.70;;;;;;5030975;28;20465;-70
2023/07/06 13:01:03;;;;;;;4.33;2.80;;;27.00;38.70;;;;;;5030808;28;20515;-70
2023/07/06 13:03:31;;;;;;;2.50;2.30;;;27.90;38.60;;;;;;5030792;28;20476;-71
2023/07/06 13:06:01;;;;;;;3.10;2.80;;;29.70;36.50;;;;;;5031104;28;20560;-69
2023/07/06 13:08:34;;;;;;;4.83;2.60;;;30.50;32.40;;;;;;5030806;28;20445;-69
2023/07/06 13:11:05;;;;;;;4.93;2.80;;;30.50;33.00;;;;;;5030520;28;20495;-70